createdAt,value
2018-11-12T00:01:30.762Z,7.17
2018-11-12T00:04:04.562Z,7.10
2018-11-12T00:06:38.589Z,7.23
2018-11-12T00:09:12.539Z,8.83
2018-11-12T00:11:46.325Z,8.93
2018-11-12T00:14:20.111Z,9.23
2018-11-12T00:16:54.090Z,10.30
2018-11-12T00:19:27.861Z,10.97
2018-11-12T00:22:01.721Z,11.83
2018-11-12T00:24:35.581Z,14.23
2018-11-12T00:27:09.549Z,11.60
2018-11-12T00:29:43.517Z,12.90
2018-11-12T00:32:17.640Z,13.03
2018-11-12T00:34:51.650Z,15.07
2018-11-12T00:37:25.684Z,12.07
2018-11-12T00:39:59.660Z,13.90
2018-11-12T00:42:33.701Z,13.73
2018-11-12T00:45:08.206Z,13.83
2018-11-12T00:47:42.609Z,13.03
2018-11-12T00:50:16.718Z,13.80
2018-11-12T00:52:50.515Z,13.60
2018-11-12T00:55:24.492Z,14.73
2018-11-12T00:57:58.286Z,16.30
2018-11-12T01:00:32.222Z,15.83
2018-11-12T01:03:06.286Z,16.90
2018-11-12T01:05:40.253Z,15.47
2018-11-12T01:08:14.207Z,16.40
2018-11-12T01:10:47.998Z,16.77
2018-11-12T01:13:21.956Z,16.80
2018-11-12T01:15:55.897Z,15.87
2018-11-12T01:18:29.716Z,13.63
2018-11-12T01:21:03.506Z,15.10
2018-11-12T01:23:37.232Z,14.30
2018-11-12T01:26:11.169Z,12.60
2018-11-12T01:28:45.128Z,13.93
2018-11-12T01:31:18.914Z,11.23
2018-11-12T01:33:52.847Z,12.53
2018-11-12T01:36:26.816Z,9.93
2018-11-12T01:39:00.609Z,9.23
2018-11-12T01:41:34.509Z,8.87
2018-11-12T01:46:47.230Z,8.53
2018-11-12T01:49:20.993Z,8.77
2018-11-12T01:51:54.975Z,8.53
2018-11-12T01:54:28.710Z,7.77
2018-11-12T01:57:02.535Z,7.03
2018-11-12T01:59:36.373Z,8.63
2018-11-12T02:02:10.299Z,8.00
2018-11-12T02:04:44.111Z,6.93
2018-11-12T02:07:18.072Z,7.23
2018-11-12T02:09:52.068Z,6.97
2018-11-12T02:12:25.791Z,6.20
2018-11-12T02:14:59.661Z,6.47
2018-11-12T02:17:33.533Z,6.97
2018-11-12T02:20:08.512Z,7.03
2018-11-12T02:22:43.757Z,6.97
2018-11-12T02:25:17.981Z,7.23
2018-11-12T02:27:52.009Z,7.90
2018-11-12T02:30:31.239Z,7.33
2018-11-12T02:33:05.157Z,7.40
2018-11-12T02:35:39.003Z,8.30
2018-11-12T02:38:13.006Z,7.63
2018-11-12T02:40:46.764Z,9.13
2018-11-12T02:43:20.776Z,8.40
2018-11-12T02:45:54.696Z,8.63
2018-11-12T02:48:28.679Z,8.53
2018-11-12T02:51:02.581Z,8.77
2018-11-12T02:53:36.533Z,9.60
2018-11-12T02:56:10.586Z,10.00
2018-11-12T02:58:44.513Z,10.60
2018-11-12T03:01:21.891Z,10.43
2018-11-12T03:03:55.814Z,11.80
2018-11-12T03:06:29.773Z,12.00
2018-11-12T03:09:05.827Z,11.47
2018-11-12T03:11:39.832Z,11.83
2018-11-12T03:14:13.636Z,15.43
2018-11-12T03:16:47.677Z,12.43
2018-11-12T03:19:21.521Z,13.17
2018-11-12T03:21:55.495Z,13.87
2018-11-12T03:24:29.324Z,12.47
2018-11-12T03:27:03.262Z,14.03
2018-11-12T03:29:37.140Z,13.13
2018-11-12T03:32:11.062Z,13.80
2018-11-12T03:34:45.052Z,12.83
2018-11-12T03:37:18.861Z,13.30
2018-11-12T03:39:52.815Z,14.13
2018-11-12T03:42:26.698Z,14.87
2018-11-12T03:45:01.193Z,15.90
2018-11-12T03:47:35.117Z,15.73
2018-11-12T03:50:10.129Z,16.83
2018-11-12T03:52:43.900Z,16.37
2018-11-12T03:55:19.928Z,16.63
2018-11-12T03:57:53.801Z,16.83
2018-11-12T04:00:31.508Z,17.33
2018-11-12T04:03:05.302Z,17.33
2018-11-12T04:05:39.190Z,17.73
2018-11-12T04:08:13.012Z,18.67
2018-11-12T04:10:47.029Z,18.50
2018-11-12T04:13:20.994Z,20.50
2018-11-12T04:15:54.916Z,19.60
2018-11-12T04:18:28.799Z,20.53
2018-11-12T04:21:02.694Z,19.57
2018-11-12T04:23:36.564Z,19.80
2018-11-12T04:26:10.469Z,19.77
2018-11-12T04:28:44.234Z,20.73
2018-11-12T04:31:17.946Z,22.30
2018-11-12T04:33:51.884Z,23.67
2018-11-12T04:36:25.878Z,24.83
2018-11-12T04:38:59.750Z,24.17
2018-11-12T04:41:33.712Z,23.63
2018-11-12T04:44:07.621Z,23.40
2018-11-12T04:46:41.601Z,23.40
2018-11-12T04:49:15.443Z,22.20
2018-11-12T04:51:49.384Z,23.07
2018-11-12T04:54:23.225Z,22.93
2018-11-12T04:56:57.363Z,22.93
2018-11-12T04:59:31.292Z,21.80
2018-11-12T05:02:05.118Z,23.20
2018-11-12T05:04:39.096Z,23.63
2018-11-12T05:07:13.119Z,23.03
2018-11-12T05:09:46.986Z,22.80
2018-11-12T05:12:20.938Z,24.83
2018-11-12T05:14:54.843Z,22.77
2018-11-12T05:17:28.771Z,23.23
2018-11-12T05:20:02.575Z,22.43
2018-11-12T05:22:36.446Z,22.47
2018-11-12T05:25:10.588Z,25.87
2018-11-12T05:27:44.410Z,23.93
2018-11-12T05:30:20.877Z,26.77
2018-11-12T05:32:54.899Z,27.60
2018-11-12T05:35:29.626Z,30.07
2018-11-12T05:38:04.431Z,30.20
2018-11-12T05:40:38.320Z,30.60
2018-11-12T05:43:11.958Z,36.73
2018-11-12T05:45:45.749Z,29.67
2018-11-12T05:48:19.644Z,29.90
2018-11-12T05:50:53.564Z,29.10
2018-11-12T05:53:27.528Z,31.90
2018-11-12T05:56:01.438Z,30.90
2018-11-12T05:58:35.330Z,30.67
2018-11-12T06:01:09.326Z,29.60
2018-11-12T06:03:43.175Z,34.20
2018-11-12T06:06:17.218Z,31.23
2018-11-12T06:08:51.172Z,32.73
2018-11-12T06:11:25.066Z,33.83
2018-11-12T06:13:59.024Z,30.10
2018-11-12T06:16:32.909Z,32.33
2018-11-12T06:19:07.017Z,33.33
2018-11-12T06:21:40.713Z,31.03
2018-11-12T06:24:14.672Z,31.47
2018-11-12T06:26:48.558Z,29.10
2018-11-12T06:29:22.360Z,29.07
2018-11-12T06:31:56.174Z,31.93
2018-11-12T06:34:29.908Z,30.83
2018-11-12T06:37:03.806Z,32.33
2018-11-12T06:39:37.788Z,29.37
2018-11-12T06:42:11.746Z,29.60
2018-11-12T06:44:45.522Z,30.37
2018-11-12T06:47:19.550Z,30.43
2018-11-12T06:49:56.275Z,34.80
2018-11-12T06:52:30.211Z,32.70
2018-11-12T06:55:04.071Z,33.90
2018-11-12T06:57:38.231Z,34.77
2018-11-12T07:00:16.780Z,35.43
2018-11-12T07:02:50.556Z,37.80
2018-11-12T07:05:24.788Z,35.57
2018-11-12T07:07:58.881Z,34.13
2018-11-12T07:10:32.801Z,37.00
2018-11-12T07:13:06.704Z,38.83
2018-11-12T07:15:40.615Z,37.90
2018-11-12T07:18:14.578Z,36.63
2018-11-12T07:20:48.565Z,36.47
2018-11-12T07:23:22.445Z,37.67
2018-11-12T07:25:56.316Z,40.30
2018-11-12T07:28:30.331Z,37.43
2018-11-12T07:31:04.310Z,40.00
2018-11-12T07:33:38.414Z,37.40
2018-11-12T07:36:12.603Z,40.13
2018-11-12T07:38:46.710Z,38.97
2018-11-12T07:41:20.659Z,36.87
2018-11-12T07:43:54.509Z,37.07
2018-11-12T07:46:28.361Z,37.33
2018-11-12T07:49:02.095Z,37.33
2018-11-12T07:51:35.837Z,37.37
2018-11-12T07:54:09.698Z,38.07
2018-11-12T07:56:43.759Z,36.70
2018-11-12T07:59:17.611Z,37.97
2018-11-12T08:01:51.446Z,38.07
2018-11-12T08:04:25.262Z,36.00
2018-11-12T08:06:59.262Z,41.20
2018-11-12T08:09:33.189Z,36.77
2018-11-12T08:12:07.302Z,35.80
2018-11-12T08:14:41.354Z,35.60
2018-11-12T08:17:15.134Z,35.53
2018-11-12T08:19:48.945Z,37.43
2018-11-12T08:22:22.836Z,33.57
2018-11-12T08:24:56.806Z,34.67
2018-11-12T08:27:30.775Z,30.90
2018-11-12T08:30:05.093Z,32.97
2018-11-12T08:32:38.710Z,30.47
2018-11-12T08:35:13.196Z,32.20
2018-11-12T08:37:47.404Z,32.57
2018-11-12T08:40:22.528Z,30.00
2018-11-12T08:42:56.395Z,31.07
2018-11-12T08:45:30.340Z,29.57
2018-11-12T08:48:04.239Z,31.00
2018-11-12T08:50:38.137Z,34.90
2018-11-12T08:53:11.904Z,31.27
2018-11-12T08:55:45.847Z,31.50
2018-11-12T08:58:20.178Z,29.93
2018-11-12T09:00:53.611Z,30.63
2018-11-12T09:03:27.360Z,27.77
2018-11-12T09:06:01.274Z,32.53
2018-11-12T09:08:35.117Z,28.97
2018-11-12T09:11:09.171Z,29.27
2018-11-12T09:13:43.597Z,29.47
2018-11-12T09:16:17.158Z,27.20
2018-11-12T09:18:51.225Z,26.03
2018-11-12T09:21:25.284Z,26.17
2018-11-12T09:23:59.871Z,25.47
2018-11-12T09:26:33.706Z,25.63
2018-11-12T09:29:07.388Z,25.30
2018-11-12T09:31:41.445Z,26.47
2018-11-12T09:34:15.443Z,25.10
2018-11-12T09:36:49.287Z,23.43
2018-11-12T09:39:23.019Z,25.27
2018-11-12T09:41:56.905Z,24.70
2018-11-12T09:44:30.745Z,21.93
2018-11-12T09:47:04.530Z,23.43
2018-11-12T09:49:38.342Z,22.57
2018-11-12T09:52:12.205Z,22.33
2018-11-12T09:54:45.999Z,22.03
2018-11-12T09:57:19.973Z,20.57
2018-11-12T09:59:53.908Z,20.57
2018-11-12T10:02:28.836Z,20.97
2018-11-12T10:05:03.501Z,20.00
2018-11-12T10:07:38.330Z,20.13
2018-11-12T10:10:18.618Z,19.73
2018-11-12T10:12:52.085Z,19.40
2018-11-12T10:15:26.680Z,18.47
2018-11-12T10:18:00.639Z,18.20
2018-11-12T10:20:31.971Z,20.10
2018-11-12T10:23:05.758Z,19.53
2018-11-12T10:25:39.720Z,18.37
2018-11-12T10:28:13.861Z,20.17
2018-11-12T10:30:47.819Z,17.97
2018-11-12T10:33:21.715Z,17.27
2018-11-12T10:35:55.369Z,18.63
2018-11-12T10:38:29.175Z,17.03
2018-11-12T10:41:02.990Z,17.33
2018-11-12T10:43:36.748Z,17.33
2018-11-12T10:46:10.475Z,18.03
2018-11-12T10:48:44.492Z,16.00
2018-11-12T10:51:18.317Z,16.07
2018-11-12T10:53:52.300Z,16.40
2018-11-12T10:56:26.177Z,16.43
2018-11-12T10:59:00.110Z,16.70
2018-11-12T11:01:39.049Z,15.67
2018-11-12T11:04:18.176Z,16.23
2018-11-12T11:06:52.048Z,15.77
2018-11-12T11:09:25.916Z,15.60
2018-11-12T11:11:59.801Z,15.60
2018-11-12T11:14:33.720Z,16.53
2018-11-12T11:17:07.585Z,15.10
2018-11-12T11:19:41.521Z,18.00
2018-11-12T11:22:15.344Z,14.97
2018-11-12T11:24:49.226Z,16.27
2018-11-12T11:27:23.179Z,17.53
2018-11-12T11:29:57.148Z,15.17
2018-11-12T11:32:30.988Z,15.83
2018-11-12T11:35:04.915Z,15.40
2018-11-12T11:37:38.880Z,15.23
2018-11-12T11:40:15.283Z,13.90
2018-11-12T11:42:49.209Z,15.37
2018-11-12T11:45:23.356Z,14.07
2018-11-12T11:47:57.239Z,13.53
2018-11-12T11:50:31.129Z,14.70
2018-11-12T11:53:04.993Z,14.10
2018-11-12T11:55:38.897Z,15.10
2018-11-12T11:58:12.948Z,14.43
2018-11-12T12:00:46.743Z,13.73
2018-11-12T12:03:20.662Z,13.57
2018-11-12T12:05:54.494Z,14.67
2018-11-12T12:08:28.439Z,13.67
2018-11-12T12:11:02.412Z,13.87
2018-11-12T12:13:36.271Z,13.40
2018-11-12T12:16:10.198Z,13.73
2018-11-12T12:18:44.165Z,13.20
2018-11-12T12:21:18.081Z,12.97
2018-11-12T12:23:51.867Z,12.70
2018-11-12T12:26:25.687Z,12.63
2018-11-12T12:28:59.453Z,13.20
2018-11-12T12:31:33.569Z,13.03
2018-11-12T12:34:07.596Z,11.50
2018-11-12T12:36:41.365Z,12.63
2018-11-12T12:39:15.298Z,11.50
2018-11-12T12:41:49.177Z,11.80
2018-11-12T12:44:23.504Z,13.13
2018-11-12T12:46:57.046Z,12.20
2018-11-12T12:49:31.112Z,12.33
2018-11-12T12:52:05.969Z,11.50
2018-11-12T12:54:39.955Z,11.60
2018-11-12T12:57:13.945Z,12.20
2018-11-12T12:59:47.865Z,11.67
2018-11-12T13:02:21.936Z,11.07
2018-11-12T13:04:55.833Z,11.40
2018-11-12T13:07:30.647Z,11.27
2018-11-12T13:10:04.859Z,11.10
2018-11-12T13:12:38.653Z,11.37
2018-11-12T13:15:15.804Z,12.50
2018-11-12T13:17:50.282Z,12.20
2018-11-12T13:20:25.035Z,11.30
2018-11-12T13:22:58.893Z,11.70
2018-11-12T13:25:32.887Z,11.07
2018-11-12T13:28:06.716Z,11.10
2018-11-12T13:30:40.327Z,11.37
2018-11-12T13:33:14.467Z,11.47
2018-11-12T13:35:48.314Z,11.57
2018-11-12T13:38:22.285Z,11.60
2018-11-12T13:40:56.305Z,11.47
2018-11-12T13:43:30.120Z,10.93
2018-11-12T13:46:03.882Z,11.47
2018-11-12T13:48:37.838Z,12.50
2018-11-12T13:51:11.778Z,10.13
2018-11-12T13:53:45.788Z,12.27
2018-11-12T13:56:19.704Z,10.87
2018-11-12T13:58:53.522Z,10.00
2018-11-12T14:01:27.716Z,10.57
2018-11-12T14:04:01.787Z,9.83
2018-11-12T14:06:35.733Z,10.33
2018-11-12T14:09:10.269Z,10.33
2018-11-12T14:11:44.101Z,10.30
2018-11-12T14:14:17.987Z,10.50
2018-11-12T14:16:52.051Z,10.07
2018-11-12T14:19:25.933Z,11.87
2018-11-12T14:21:59.793Z,10.33
2018-11-12T14:24:33.584Z,10.10
2018-11-12T14:27:07.438Z,10.43
2018-11-12T14:29:41.363Z,11.30
2018-11-12T14:32:15.113Z,12.60
2018-11-12T14:34:49.217Z,12.43
2018-11-12T14:37:23.158Z,10.63
2018-11-12T14:39:57.336Z,10.30
2018-11-12T14:42:31.337Z,10.57
2018-11-12T14:45:05.513Z,9.73
2018-11-12T14:47:39.308Z,9.93
2018-11-12T14:50:13.375Z,10.20
2018-11-12T14:52:47.886Z,11.70
2018-11-12T14:55:22.047Z,10.63
2018-11-12T14:57:56.007Z,10.27
2018-11-12T15:00:29.686Z,11.80
2018-11-12T15:03:03.551Z,9.83
2018-11-12T15:05:37.340Z,11.37
2018-11-12T15:08:11.317Z,12.57
2018-11-12T15:10:45.268Z,9.77
2018-11-12T15:13:19.143Z,10.23
2018-11-12T15:15:52.875Z,11.23
2018-11-12T15:18:26.663Z,10.47
2018-11-12T15:21:00.680Z,10.17
2018-11-12T15:23:34.530Z,10.90
2018-11-12T15:26:08.482Z,10.13
2018-11-12T15:28:42.555Z,10.20
2018-11-12T15:31:16.364Z,10.20
2018-11-12T15:33:50.308Z,11.23
2018-11-12T15:36:24.180Z,11.47
2018-11-12T15:38:58.050Z,11.03
2018-11-12T15:41:32.378Z,10.53
2018-11-12T15:44:06.505Z,12.03
2018-11-12T15:46:41.013Z,15.30
2018-11-12T15:49:15.251Z,13.20
2018-11-12T15:51:49.236Z,11.27
2018-11-12T15:54:23.216Z,14.07
2018-11-12T15:56:57.229Z,13.47
2018-11-12T15:59:31.136Z,10.73
2018-11-12T16:02:05.071Z,11.13
2018-11-12T16:04:38.892Z,11.50
2018-11-12T16:07:12.685Z,13.03
2018-11-12T16:09:46.622Z,13.70
2018-11-12T16:12:20.511Z,12.20
2018-11-12T16:14:54.689Z,14.07
2018-11-12T16:17:28.810Z,13.05
2018-11-12T16:20:03.371Z,13.90
2018-11-12T16:22:37.604Z,12.67
2018-11-12T16:25:12.311Z,12.77
2018-11-12T16:27:46.445Z,12.40
2018-11-12T16:30:21.145Z,12.85
2018-11-12T16:32:55.433Z,11.80
2018-11-12T16:35:29.571Z,12.87
2018-11-12T16:38:03.516Z,12.20
2018-11-12T16:40:37.411Z,12.83
2018-11-12T16:43:11.226Z,11.13
2018-11-12T16:45:45.319Z,11.97
2018-11-12T16:48:19.515Z,12.30
2018-11-12T16:50:53.354Z,12.67
2018-11-12T16:53:28.412Z,13.00
2018-11-12T16:56:02.512Z,13.60
2018-11-12T16:58:36.465Z,13.80
2018-11-12T17:01:10.627Z,13.27
2018-11-12T17:03:44.523Z,13.27
2018-11-12T17:06:18.497Z,12.03
2018-11-12T17:08:52.465Z,13.50
2018-11-12T17:11:26.521Z,14.33
2018-11-12T17:14:00.787Z,13.43
2018-11-12T17:16:34.969Z,13.00
2018-11-12T17:19:12.280Z,14.13
2018-11-12T17:21:46.681Z,13.10
2018-11-12T17:24:26.610Z,13.23
2018-11-12T17:27:01.244Z,14.57
2018-11-12T17:32:25.089Z,12.73
2018-11-12T17:34:58.987Z,13.37
2018-11-12T17:37:33.299Z,12.07
2018-11-12T17:40:12.712Z,11.47
2018-11-12T17:42:47.930Z,11.83
2018-11-12T17:45:23.270Z,11.83
2018-11-12T17:47:58.145Z,12.87
2018-11-12T17:50:32.122Z,11.70
2018-11-12T17:53:06.484Z,12.30
2018-11-12T17:55:40.488Z,11.43
2018-11-12T17:58:14.443Z,11.87
2018-11-12T18:00:48.365Z,14.20
2018-11-12T18:03:22.550Z,11.20
2018-11-12T18:05:56.390Z,11.07
2018-11-12T18:08:30.328Z,11.80
2018-11-12T18:11:04.287Z,11.00
2018-11-12T18:13:38.244Z,10.70
2018-11-12T18:16:11.898Z,10.60
2018-11-12T18:18:45.819Z,10.90
2018-11-12T18:21:19.733Z,9.60
2018-11-12T18:23:53.720Z,13.87
2018-11-12T18:26:27.410Z,9.67
2018-11-12T18:29:01.530Z,9.63
2018-11-12T18:31:35.577Z,9.20
2018-11-12T18:34:09.331Z,8.57
2018-11-12T18:36:43.076Z,9.70
2018-11-12T18:39:17.080Z,8.90
2018-11-12T18:41:51.000Z,9.00
2018-11-12T18:44:24.905Z,9.27
2018-11-12T18:46:58.846Z,9.23
2018-11-12T18:49:33.082Z,8.60
2018-11-12T18:52:06.986Z,9.17
2018-11-12T18:54:41.368Z,8.77
2018-11-12T18:57:15.469Z,9.40
2018-11-12T18:59:49.393Z,8.07
2018-11-12T19:02:23.433Z,8.03
2018-11-12T19:04:57.443Z,8.43
2018-11-12T19:07:31.375Z,10.23
2018-11-12T19:10:06.076Z,10.83
2018-11-12T19:12:40.169Z,9.10
2018-11-12T19:15:16.281Z,9.73
2018-11-12T19:17:51.549Z,11.03
2018-11-12T19:20:25.570Z,10.53
2018-11-12T19:22:59.403Z,8.77
2018-11-12T19:25:33.321Z,8.93
2018-11-12T19:28:07.307Z,8.70
2018-11-12T19:30:41.933Z,8.73
2018-11-12T19:33:15.773Z,9.30
2018-11-12T19:35:49.563Z,9.67
2018-11-12T19:38:23.463Z,9.47
2018-11-12T19:40:57.303Z,10.27
2018-11-12T19:43:31.332Z,9.70
2018-11-12T19:46:07.406Z,10.37
2018-11-12T19:48:41.456Z,9.20
2018-11-12T19:51:15.340Z,9.57
2018-11-12T19:53:49.163Z,8.97
2018-11-12T19:56:23.175Z,10.50
2018-11-12T19:58:57.278Z,9.77
2018-11-12T20:01:31.189Z,9.57
2018-11-12T20:04:05.357Z,9.10
2018-11-12T20:06:39.268Z,9.43
2018-11-12T20:09:13.299Z,8.63
2018-11-12T20:11:47.215Z,8.97
2018-11-12T20:14:21.192Z,9.67
2018-11-12T20:16:56.146Z,9.30
2018-11-12T20:19:29.964Z,9.60
2018-11-12T20:22:03.935Z,9.60
2018-11-12T20:24:38.015Z,10.47
2018-11-12T20:27:12.330Z,10.37
2018-11-12T20:29:46.513Z,9.23
2018-11-12T20:32:20.343Z,8.73
2018-11-12T20:34:54.157Z,7.93
2018-11-12T20:37:28.102Z,9.97
2018-11-12T20:40:02.152Z,8.17
2018-11-12T20:42:36.210Z,7.60
2018-11-12T20:45:10.740Z,7.83
2018-11-12T20:47:45.752Z,8.93
2018-11-12T20:50:19.701Z,8.90
2018-11-12T20:52:53.603Z,8.87
2018-11-12T20:55:27.503Z,8.50
2018-11-12T20:58:01.415Z,7.20
2018-11-12T21:00:35.378Z,8.07
2018-11-12T21:03:09.402Z,8.40
2018-11-12T21:05:43.368Z,8.53
2018-11-12T21:08:17.709Z,9.37
2018-11-12T21:10:51.837Z,8.53
2018-11-12T21:13:25.763Z,8.33
2018-11-12T21:15:59.778Z,7.60
2018-11-12T21:18:33.699Z,7.43
2018-11-12T21:23:46.258Z,8.03
2018-11-12T21:26:20.186Z,7.50
2018-11-12T21:28:54.136Z,7.50
2018-11-12T21:31:28.111Z,9.83
2018-11-12T21:34:02.117Z,7.97
2018-11-12T21:36:35.999Z,7.37
2018-11-12T21:39:11.402Z,7.57
2018-11-12T21:41:45.253Z,6.73
2018-11-12T21:44:19.195Z,7.53
2018-11-12T21:46:53.049Z,7.30
2018-11-12T21:49:27.017Z,8.07
2018-11-12T21:52:00.877Z,6.57
2018-11-12T21:54:34.858Z,6.53
2018-11-12T21:57:08.554Z,6.17
2018-11-12T21:59:42.448Z,6.13
2018-11-12T22:02:16.223Z,7.30
2018-11-12T22:04:50.227Z,7.83
2018-11-12T22:07:24.157Z,5.97
2018-11-12T22:09:58.146Z,5.27
2018-11-12T22:12:32.071Z,6.10
2018-11-12T22:15:06.165Z,5.90
2018-11-12T22:17:39.957Z,6.93
2018-11-12T22:20:15.268Z,5.43
2018-11-12T22:22:49.179Z,6.03
2018-11-12T22:25:23.486Z,5.50
2018-11-12T22:27:58.507Z,5.13
2018-11-12T22:30:33.116Z,5.20
2018-11-12T22:33:06.913Z,6.73
2018-11-12T22:35:40.730Z,6.47
2018-11-12T22:38:14.725Z,5.13
2018-11-12T22:40:48.574Z,4.77
2018-11-12T22:43:22.390Z,4.60
2018-11-12T22:45:56.420Z,4.60
2018-11-12T22:48:30.263Z,4.07
2018-11-12T22:51:04.009Z,8.47
2018-11-12T22:53:37.798Z,5.43
2018-11-12T22:56:11.598Z,5.50
2018-11-12T22:58:45.782Z,3.67
2018-11-12T23:01:19.847Z,4.60
2018-11-12T23:03:53.841Z,3.50
2018-11-12T23:06:28.988Z,4.77
2018-11-12T23:09:03.737Z,4.70
2018-11-12T23:11:38.318Z,3.40
2018-11-12T23:14:12.993Z,3.33
2018-11-12T23:16:46.886Z,3.17
2018-11-12T23:19:20.545Z,3.30
2018-11-12T23:21:54.366Z,3.23
2018-11-12T23:24:28.067Z,4.10
2018-11-12T23:27:01.646Z,3.67
2018-11-12T23:29:35.584Z,4.23
2018-11-12T23:32:09.495Z,2.90
2018-11-12T23:34:43.165Z,3.30
2018-11-12T23:37:17.047Z,4.63
2018-11-12T23:39:50.768Z,3.17
2018-11-12T23:42:24.811Z,3.10
2018-11-12T23:44:58.565Z,4.03
2018-11-12T23:47:32.462Z,3.80
2018-11-12T23:50:08.496Z,4.53
2018-11-12T23:52:42.787Z,3.00
2018-11-12T23:55:16.981Z,2.90
2018-11-12T23:57:51.205Z,3.40
